sensor_id;sensor_type;location;lat;lon;timestamp;temperature;humidity
41471;DHT22;27211;51.220;5.308;2023-06-05T05:14:58;14.00;99.90
41471;DHT22;27211;51.220;5.308;2023-06-05T05:17:26;14.20;99.90
41471;DHT22;27211;51.220;5.308;2023-06-05T05:19:54;14.30;99.90
41471;DHT22;27211;51.220;5.308;2023-06-05T05:22:22;14.30;99.90
41471;DHT22;27211;51.220;5.308;2023-06-05T05:24:51;14.30;99.90
41471;DHT22;27211;51.220;5.308;2023-06-05T05:27:19;14.30;99.90
41471;DHT22;27211;51.220;5.308;2023-06-05T05:29:47;14.50;99.90
41471;DHT22;27211;51.220;5.308;2023-06-05T05:32:16;14.40;99.90
41471;DHT22;27211;51.220;5.308;2023-06-05T05:34:45;14.60;99.90
41471;DHT22;27211;51.220;5.308;2023-06-05T05:37:13;14.80;99.90
41471;DHT22;27211;51.220;5.308;2023-06-05T05:39:41;14.80;99.90
41471;DHT22;27211;51.220;5.308;2023-06-05T05:42:18;15.00;99.90
41471;DHT22;27211;51.220;5.308;2023-06-05T05:44:46;15.30;99.90
41471;DHT22;27211;51.220;5.308;2023-06-05T05:47:14;15.20;99.90
41471;DHT22;27211;51.220;5.308;2023-06-05T05:49:42;15.50;99.90
41471;DHT22;27211;51.220;5.308;2023-06-05T05:52:10;15.50;99.90
41471;DHT22;27211;51.220;5.308;2023-06-05T05:54:38;15.90;99.90
41471;DHT22;27211;51.220;5.308;2023-06-05T05:57:07;15.90;99.90
41471;DHT22;27211;51.220;5.308;2023-06-05T05:59:35;15.80;99.90
41471;DHT22;27211;51.220;5.308;2023-06-05T06:02:03;16.20;99.90
41471;DHT22;27211;51.220;5.308;2023-06-05T06:04:34;16.50;99.90
41471;DHT22;27211;51.220;5.308;2023-06-05T06:07:02;16.70;99.90
41471;DHT22;27211;51.220;5.308;2023-06-05T06:09:32;16.90;99.90
41471;DHT22;27211;51.220;5.308;2023-06-05T06:12:08;17.20;99.90
41471;DHT22;27211;51.220;5.308;2023-06-05T06:14:36;17.30;99.90
41471;DHT22;27211;51.220;5.308;2023-06-05T06:17:04;17.60;99.90
41471;DHT22;27211;51.220;5.308;2023-06-05T06:19:35;17.80;99.90
41471;DHT22;27211;51.220;5.308;2023-06-05T06:22:03;17.90;99.90
41471;DHT22;27211;51.220;5.308;2023-06-05T06:24:38;18.00;99.90
41471;DHT22;27211;51.220;5.308;2023-06-05T06:27:05;18.30;99.90
41471;DHT22;27211;51.220;5.308;2023-06-05T06:29:34;18.70;99.90
41471;DHT22;27211;51.220;5.308;2023-06-05T06:32:01;18.90;99.90
41471;DHT22;27211;51.220;5.308;2023-06-05T06:34:29;18.80;99.90
41471;DHT22;27211;51.220;5.308;2023-06-05T06:36:58;18.80;99.90
41471;DHT22;27211;51.220;5.308;2023-06-05T06:39:25;19.00;99.90
41471;DHT22;27211;51.220;5.308;2023-06-05T06:41:54;19.30;99.90
41471;DHT22;27211;51.220;5.308;2023-06-05T06:44:22;19.80;99.90
41471;DHT22;27211;51.220;5.308;2023-06-05T06:46:50;19.90;99.90
41471;DHT22;27211;51.220;5.308;2023-06-05T06:49:18;19.60;99.90
41471;DHT22;27211;51.220;5.308;2023-06-05T06:51:46;19.60;99.90
41471;DHT22;27211;51.220;5.308;2023-06-05T06:54:14;19.90;99.90
41471;DHT22;27211;51.220;5.308;2023-06-05T06:56:41;20.30;99.90
41471;DHT22;27211;51.220;5.308;2023-06-05T06:59:13;20.40;99.90
41471;DHT22;27211;51.220;5.308;2023-06-05T07:01:44;21.00;99.90
41471;DHT22;27211;51.220;5.308;2023-06-05T07:04:15;21.40;99.90
41471;DHT22;27211;51.220;5.308;2023-06-05T07:06:46;21.50;99.80
41471;DHT22;27211;51.220;5.308;2023-06-05T07:09:13;21.60;99.70
41471;DHT22;27211;51.220;5.308;2023-06-05T08:43:39;28.40;77.30
41471;DHT22;27211;51.220;5.308;2023-06-05T08:46:08;28.40;77.30
41471;DHT22;27211;51.220;5.308;2023-06-05T08:48:37;28.80;76.90
41471;DHT22;27211;51.220;5.308;2023-06-05T08:51:04;28.90;76.00
41471;DHT22;27211;51.220;5.308;2023-06-05T08:53:33;29.40;75.20
41471;DHT22;27211;51.220;5.308;2023-06-05T08:56:01;29.80;73.70
41471;DHT22;27211;51.220;5.308;2023-06-05T08:58:30;29.70;73.50
41471;DHT22;27211;51.220;5.308;2023-06-05T09:00:59;30.20;72.00
41471;DHT22;27211;51.220;5.308;2023-06-05T09:03:27;29.80;71.50
41471;DHT22;27211;51.220;5.308;2023-06-05T09:05:56;30.10;71.10
41471;DHT22;27211;51.220;5.308;2023-06-05T09:08:28;30.40;70.40
41471;DHT22;27211;51.220;5.308;2023-06-05T09:13:45;30.90;69.00
41471;DHT22;27211;51.220;5.308;2023-06-05T09:16:13;31.10;67.30
41471;DHT22;27211;51.220;5.308;2023-06-05T09:18:51;31.60;66.50
41471;DHT22;27211;51.220;5.308;2023-06-05T09:21:19;31.70;65.70
41471;DHT22;27211;51.220;5.308;2023-06-05T09:23:48;31.60;65.60
41471;DHT22;27211;51.220;5.308;2023-06-05T09:26:16;31.70;65.20
41471;DHT22;27211;51.220;5.308;2023-06-05T09:28:54;32.20;64.10
41471;DHT22;27211;51.220;5.308;2023-06-05T09:31:23;31.70;63.70
41471;DHT22;27211;51.220;5.308;2023-06-05T09:33:55;31.80;63.50
41471;DHT22;27211;51.220;5.308;2023-06-05T09:36:23;32.10;62.80
41471;DHT22;27211;51.220;5.308;2023-06-05T09:38:51;32.10;62.60
41471;DHT22;27211;51.220;5.308;2023-06-05T09:41:20;32.70;61.90
41471;DHT22;27211;51.220;5.308;2023-06-05T09:43:48;32.80;61.20
41471;DHT22;27211;51.220;5.308;2023-06-05T09:46:17;32.50;60.80
41471;DHT22;27211;51.220;5.308;2023-06-05T09:48:56;32.40;60.50
41471;DHT22;27211;51.220;5.308;2023-06-05T09:51:24;32.90;60.10
41471;DHT22;27211;51.220;5.308;2023-06-05T09:53:52;32.90;59.60
41471;DHT22;27211;51.220;5.308;2023-06-05T09:56:21;32.50;60.00
41471;DHT22;27211;51.220;5.308;2023-06-05T09:58:49;32.70;59.30
41471;DHT22;27211;51.220;5.308;2023-06-05T10:01:22;33.40;58.80
41471;DHT22;27211;51.220;5.308;2023-06-05T10:03:58;33.70;57.30
41471;DHT22;27211;51.220;5.308;2023-06-05T10:06:27;33.50;56.80
41471;DHT22;27211;51.220;5.308;2023-06-05T10:08:54;34.20;56.40
41471;DHT22;27211;51.220;5.308;2023-06-05T10:11:23;34.60;55.60
41471;DHT22;27211;51.220;5.308;2023-06-05T10:13:54;34.80;54.80
41471;DHT22;27211;51.220;5.308;2023-06-05T10:16:22;34.70;54.70
41471;DHT22;27211;51.220;5.308;2023-06-05T10:18:50;34.70;54.40
41471;DHT22;27211;51.220;5.308;2023-06-05T10:21:18;34.10;54.50
41471;DHT22;27211;51.220;5.308;2023-06-05T10:23:48;34.20;54.20
41471;DHT22;27211;51.220;5.308;2023-06-05T10:26:22;33.80;54.00
41471;DHT22;27211;51.220;5.308;2023-06-05T10:31:29;33.50;54.50
41471;DHT22;27211;51.220;5.308;2023-06-05T10:36:53;34.20;54.50
41471;DHT22;27211;51.220;5.308;2023-06-05T10:39:21;34.70;54.20
41471;DHT22;27211;51.220;5.308;2023-06-05T10:41:49;34.90;53.10
41471;DHT22;27211;51.220;5.308;2023-06-05T10:44:17;35.00;53.30
41471;DHT22;27211;51.220;5.308;2023-06-05T10:46:54;35.70;52.80
41471;DHT22;27211;51.220;5.308;2023-06-05T10:49:26;35.90;51.60
41471;DHT22;27211;51.220;5.308;2023-06-05T10:52:03;35.80;51.30
41471;DHT22;27211;51.220;5.308;2023-06-05T10:56:58;35.90;50.60
41471;DHT22;27211;51.220;5.308;2023-06-05T10:59:27;35.90;50.40
41471;DHT22;27211;51.220;5.308;2023-06-05T11:04:30;35.50;50.40
41471;DHT22;27211;51.220;5.308;2023-06-05T11:07:17;35.90;50.60
41471;DHT22;27211;51.220;5.308;2023-06-05T11:15:01;36.60;50.00
41471;DHT22;27211;51.220;5.308;2023-06-05T11:17:29;37.00;49.50
41471;DHT22;27211;51.220;5.308;2023-06-05T11:19:57;37.10;49.20
41471;DHT22;27211;51.220;5.308;2023-06-05T11:22:25;37.10;48.90
41471;DHT22;27211;51.220;5.308;2023-06-05T11:27:43;37.00;48.40
41471;DHT22;27211;51.220;5.308;2023-06-05T11:30:17;37.10;47.40
41471;DHT22;27211;51.220;5.308;2023-06-05T11:32:45;36.60;47.10
41471;DHT22;27211;51.220;5.308;2023-06-05T11:35:12;37.10;47.60
41471;DHT22;27211;51.220;5.308;2023-06-05T11:37:40;37.20;47.50
41471;DHT22;27211;51.220;5.308;2023-06-05T11:40:09;37.40;47.50
41471;DHT22;27211;51.220;5.308;2023-06-05T11:42:37;37.70;47.20
41471;DHT22;27211;51.220;5.308;2023-06-05T11:45:10;37.80;46.20
41471;DHT22;27211;51.220;5.308;2023-06-05T11:47:38;37.00;46.00
41471;DHT22;27211;51.220;5.308;2023-06-05T11:50:10;37.40;46.30
41471;DHT22;27211;51.220;5.308;2023-06-05T11:52:37;37.50;46.40
41471;DHT22;27211;51.220;5.308;2023-06-05T11:55:15;37.20;46.10
41471;DHT22;27211;51.220;5.308;2023-06-05T11:57:48;37.40;46.60
41471;DHT22;27211;51.220;5.308;2023-06-05T12:00:21;37.20;45.80
41471;DHT22;27211;51.220;5.308;2023-06-05T12:02:49;37.50;45.70
41471;DHT22;27211;51.220;5.308;2023-06-05T12:05:17;37.60;45.70
41471;DHT22;27211;51.220;5.308;2023-06-05T12:07:45;37.90;45.90
41471;DHT22;27211;51.220;5.308;2023-06-05T12:10:13;39.00;45.10
41471;DHT22;27211;51.220;5.308;2023-06-05T12:12:54;38.20;43.50
41471;DHT22;27211;51.220;5.308;2023-06-05T12:15:22;37.60;43.20
41471;DHT22;27211;51.220;5.308;2023-06-05T12:17:50;37.80;44.30
41471;DHT22;27211;51.220;5.308;2023-06-05T12:20:18;37.80;44.00
41471;DHT22;27211;51.220;5.308;2023-06-05T12:22:46;37.40;45.00
41471;DHT22;27211;51.220;5.308;2023-06-05T12:25:17;37.90;44.20
41471;DHT22;27211;51.220;5.308;2023-06-05T12:27:46;37.70;43.60
41471;DHT22;27211;51.220;5.308;2023-06-05T12:30:13;37.50;43.40
41471;DHT22;27211;51.220;5.308;2023-06-05T12:32:44;38.10;43.90
41471;DHT22;27211;51.220;5.308;2023-06-05T12:35:18;37.90;44.20
41471;DHT22;27211;51.220;5.308;2023-06-05T12:37:45;38.10;43.90
41471;DHT22;27211;51.220;5.308;2023-06-05T12:40:13;38.40;43.70
41471;DHT22;27211;51.220;5.308;2023-06-05T12:42:39;38.80;43.00
41471;DHT22;27211;51.220;5.308;2023-06-05T12:45:06;38.60;42.20
41471;DHT22;27211;51.220;5.308;2023-06-05T12:47:34;37.60;42.40
41471;DHT22;27211;51.220;5.308;2023-06-05T12:50:02;37.30;43.20
41471;DHT22;27211;51.220;5.308;2023-06-05T12:52:30;37.80;43.20
41471;DHT22;27211;51.220;5.308;2023-06-05T12:55:04;38.50;42.90
41471;DHT22;27211;51.220;5.308;2023-06-05T12:57:32;37.90;41.70
41471;DHT22;27211;51.220;5.308;2023-06-05T13:00:03;38.10;41.70
41471;DHT22;27211;51.220;5.308;2023-06-05T13:02:41;38.30;42.20
41471;DHT22;27211;51.220;5.308;2023-06-05T13:05:10;38.20;42.00
41471;DHT22;27211;51.220;5.308;2023-06-05T13:07:38;38.00;42.10
41471;DHT22;27211;51.220;5.308;2023-06-05T13:10:06;38.20;41.70
41471;DHT22;27211;51.220;5.308;2023-06-05T13:12:34;37.90;41.70
41471;DHT22;27211;51.220;5.308;2023-06-05T13:15:03;38.60;41.80
41471;DHT22;27211;51.220;5.308;2023-06-05T13:17:32;38.60;41.60
41471;DHT22;27211;51.220;5.308;2023-06-05T13:20:01;38.50;41.40
41471;DHT22;27211;51.220;5.308;2023-06-05T13:22:38;38.10;41.50
41471;DHT22;27211;51.220;5.308;2023-06-05T13:25:06;37.20;41.30
41471;DHT22;27211;51.220;5.308;2023-06-05T13:27:34;37.40;41.40
41471;DHT22;27211;51.220;5.308;2023-06-05T13:30:11;37.60;41.50
41471;DHT22;27211;51.220;5.308;2023-06-05T13:32:38;37.70;41.70
41471;DHT22;27211;51.220;5.308;2023-06-05T13:35:09;38.30;41.50
41471;DHT22;27211;51.220;5.308;2023-06-05T13:37:43;38.00;41.30
41471;DHT22;27211;51.220;5.308;2023-06-05T13:40:13;38.00;41.30
41471;DHT22;27211;51.220;5.308;2023-06-05T13:42:41;38.10;41.10
41471;DHT22;27211;51.220;5.308;2023-06-05T13:45:09;38.10;41.40
41471;DHT22;27211;51.220;5.308;2023-06-05T13:47:37;38.20;41.30
41471;DHT22;27211;51.220;5.308;2023-06-05T13:50:05;38.70;41.20
41471;DHT22;27211;51.220;5.308;2023-06-05T13:52:34;38.00;41.00
41471;DHT22;27211;51.220;5.308;2023-06-05T13:55:03;37.70;40.50
41471;DHT22;27211;51.220;5.308;2023-06-05T13:57:31;37.60;41.00
41471;DHT22;27211;51.220;5.308;2023-06-05T13:59:59;37.60;41.10
41471;DHT22;27211;51.220;5.308;2023-06-05T14:02:28;37.90;40.70
41471;DHT22;27211;51.220;5.308;2023-06-05T14:04:55;37.20;41.00
41471;DHT22;27211;51.220;5.308;2023-06-05T14:07:23;36.50;41.20
41471;DHT22;27211;51.220;5.308;2023-06-05T14:09:51;36.00;41.40
41471;DHT22;27211;51.220;5.308;2023-06-05T14:12:19;36.40;41.70
41471;DHT22;27211;51.220;5.308;2023-06-05T14:14:46;36.70;41.40
41471;DHT22;27211;51.220;5.308;2023-06-05T14:17:14;36.80;40.90
41471;DHT22;27211;51.220;5.308;2023-06-05T14:19:41;37.00;40.60
41471;DHT22;27211;51.220;5.308;2023-06-05T14:22:09;36.90;41.00
41471;DHT22;27211;51.220;5.308;2023-06-05T14:24:37;37.20;41.40
41471;DHT22;27211;51.220;5.308;2023-06-05T14:27:12;37.40;41.50
41471;DHT22;27211;51.220;5.308;2023-06-05T14:29:38;37.30;41.20
41471;DHT22;27211;51.220;5.308;2023-06-05T14:32:05;36.80;41.60
41471;DHT22;27211;51.220;5.308;2023-06-05T14:34:33;35.60;41.00
41471;DHT22;27211;51.220;5.308;2023-06-05T14:37:02;34.40;42.50
41471;DHT22;27211;51.220;5.308;2023-06-05T14:39:29;33.70;42.90
41471;DHT22;27211;51.220;5.308;2023-06-05T14:41:58;33.00;43.20
41471;DHT22;27211;51.220;5.308;2023-06-05T14:44:30;32.60;43.80
41471;DHT22;27211;51.220;5.308;2023-06-05T14:47:19;32.40;44.60
41471;DHT22;27211;51.220;5.308;2023-06-05T14:49:53;31.40;44.50
41471;DHT22;27211;51.220;5.308;2023-06-05T14:52:21;30.90;46.10
41471;DHT22;27211;51.220;5.308;2023-06-05T14:54:49;31.00;46.00
41471;DHT22;27211;51.220;5.308;2023-06-05T14:57:17;30.80;46.40
41471;DHT22;27211;51.220;5.308;2023-06-05T14:59:46;30.90;46.10
41471;DHT22;27211;51.220;5.308;2023-06-05T15:02:13;31.20;46.20
41471;DHT22;27211;51.220;5.308;2023-06-05T15:04:41;31.00;46.10
41471;DHT22;27211;51.220;5.308;2023-06-05T15:07:08;31.00;46.10
41471;DHT22;27211;51.220;5.308;2023-06-05T15:09:44;30.70;46.00
41471;DHT22;27211;51.220;5.308;2023-06-05T15:12:12;30.60;46.60
41471;DHT22;27211;51.220;5.308;2023-06-05T15:14:40;30.20;46.60
41471;DHT22;27211;51.220;5.308;2023-06-05T15:17:08;30.10;46.90
41471;DHT22;27211;51.220;5.308;2023-06-05T15:19:36;30.10;46.80
41471;DHT22;27211;51.220;5.308;2023-06-05T15:22:04;30.20;47.20
41471;DHT22;27211;51.220;5.308;2023-06-05T15:24:33;30.10;47.10
41471;DHT22;27211;51.220;5.308;2023-06-05T15:27:00;30.20;47.00
41471;DHT22;27211;51.220;5.308;2023-06-05T15:29:28;30.30;46.90
41471;DHT22;27211;51.220;5.308;2023-06-05T15:31:56;30.20;46.90
41471;DHT22;27211;51.220;5.308;2023-06-05T15:34:24;29.90;47.20
41471;DHT22;27211;51.220;5.308;2023-06-05T15:36:52;29.80;47.40
41471;DHT22;27211;51.220;5.308;2023-06-05T15:39:20;29.70;47.40
41471;DHT22;27211;51.220;5.308;2023-06-05T15:41:48;29.50;47.20
41471;DHT22;27211;51.220;5.308;2023-06-05T15:44:16;29.60;47.30
41471;DHT22;27211;51.220;5.308;2023-06-05T15:46:44;29.50;47.30
41471;DHT22;27211;51.220;5.308;2023-06-05T15:49:12;29.40;47.40
41471;DHT22;27211;51.220;5.308;2023-06-05T15:51:41;29.10;47.70
